Time;durP1;ratioP1;P1;durP2;ratioP2;P2;SDS_P1;SDS_P2;PMS_P1;PMS_P2;Temp;Humidity;BMP_temperature;BMP_pressure;BME280_temperature;BME280_humidity;BME280_pressure;Samples;Min_cycle;Max_cycle;Signal;HPM_P1;HPM_P2
2021/12/24 00:00:43;;;;;;;71.20;39.88;;;;;;;;;;4994812;28;20089;-86
2021/12/24 00:03:10;;;;;;;72.90;41.42;;;;;;;;;;4996663;28;20034;-86
2021/12/24 00:05:36;;;;;;;68.20;40.90;;;;;;;;;;4979666;28;20018;-87
2021/12/24 00:08:02;;;;;;;73.43;39.83;;;;;;;;;;4980812;28;20038;-86
2021/12/24 00:10:31;;;;;;;68.53;40.58;;;;;;;;;;4979577;28;20409;-86
2021/12/24 00:13:04;;;;;;;74.00;41.40;;;;;;;;;;4989338;28;20034;-87
2021/12/24 00:18:30;;;;;;;68.50;39.55;;;;;;;;;;4994176;28;20044;-85
2021/12/24 00:37:40;;;;;;;66.80;37.40;;;;;;;;;;4989339;28;20333;-86
2021/12/24 00:40:19;;;;;;;66.80;38.47;;;;;;;;;;4990477;28;20026;-85
2021/12/24 00:42:48;;;;;;;66.60;38.08;;;;;;;;;;4959293;29;20417;-86
2021/12/24 00:45:15;;;;;;;65.03;37.10;;;;;;;;;;4960770;29;20069;-87
2021/12/24 00:47:41;;;;;;;66.20;37.70;;;;;;;;;;4960293;29;20027;-87
2021/12/24 00:50:12;;;;;;;63.13;37.25;;;;;;;;;;4959191;28;20049;-86
2021/12/24 00:55:10;;;;;;;67.25;38.70;;;;;;;;;;4960388;29;20035;-85
2021/12/24 00:57:38;;;;;;;63.53;37.47;;;;;;;;;;4958966;28;20039;-85
2021/12/24 01:00:06;;;;;;;68.30;37.72;;;;;;;;;;4960251;28;20028;-86
2021/12/24 01:02:32;;;;;;;69.80;37.75;;;;;;;;;;4960380;28;20354;-86
2021/12/24 01:04:58;;;;;;;60.55;36.83;;;;;;;;;;4960331;28;20032;-86
2021/12/24 01:07:24;;;;;;;60.50;36.45;;;;;;;;;;4959954;28;20035;-85
2021/12/24 01:09:50;;;;;;;61.13;35.38;;;;;;;;;;4959042;28;20051;-85
2021/12/24 01:12:17;;;;;;;58.60;35.22;;;;;;;;;;4959646;28;20054;-84
2021/12/24 01:14:46;;;;;;;59.63;34.20;;;;;;;;;;4959394;28;20050;-85
2021/12/24 01:17:26;;;;;;;59.58;34.33;;;;;;;;;;4958834;28;20374;-84
2021/12/24 01:19:58;;;;;;;56.35;34.72;;;;;;;;;;4939710;29;20159;-86
2021/12/24 01:25:23;;;;;;;56.00;32.55;;;;;;;;;;4943511;29;20050;-84
2021/12/24 01:28:02;;;;;;;55.20;34.15;;;;;;;;;;4958438;28;20031;-84
2021/12/24 01:38:35;;;;;;;60.45;32.97;;;;;;;;;;4959250;29;20050;-84
2021/12/24 01:43:28;;;;;;;55.72;33.97;;;;;;;;;;4978923;28;20113;-85
2021/12/24 01:45:55;;;;;;;57.90;33.35;;;;;;;;;;4978813;28;20089;-85
2021/12/24 01:48:22;;;;;;;59.63;34.25;;;;;;;;;;4978935;28;20026;-85
2021/12/24 01:50:49;;;;;;;55.38;33.70;;;;;;;;;;4992508;28;20105;-85
2021/12/24 01:53:16;;;;;;;56.67;33.28;;;;;;;;;;4989889;28;20114;-84
2021/12/24 01:55:43;;;;;;;54.88;33.08;;;;;;;;;;4978861;28;20026;-85
2021/12/24 01:58:10;;;;;;;55.45;32.28;;;;;;;;;;4978908;28;20316;-86
2021/12/24 02:00:38;;;;;;;61.47;31.90;;;;;;;;;;4985512;28;20078;-86
2021/12/24 02:03:04;;;;;;;51.08;30.30;;;;;;;;;;4986564;28;20026;-86
2021/12/24 02:05:31;;;;;;;52.53;31.13;;;;;;;;;;4989558;28;20065;-86
2021/12/24 02:07:57;;;;;;;52.55;31.55;;;;;;;;;;4978573;28;20043;-85
2021/12/24 02:10:24;;;;;;;49.72;29.95;;;;;;;;;;4988420;28;20092;-86
2021/12/24 02:12:50;;;;;;;54.53;31.67;;;;;;;;;;4983171;28;20035;-86
2021/12/24 02:15:30;;;;;;;58.70;32.22;;;;;;;;;;4987446;28;20077;-85
2021/12/24 02:28:55;;;;;;;52.60;29.27;;;;;;;;;;4992739;28;20126;-86
2021/12/24 02:31:23;;;;;;;54.58;29.73;;;;;;;;;;4997212;28;20022;-86
2021/12/24 02:33:49;;;;;;;52.75;30.65;;;;;;;;;;4983780;28;20038;-85
2021/12/24 02:36:15;;;;;;;48.03;29.13;;;;;;;;;;4982140;28;20413;-86
2021/12/24 02:38:42;;;;;;;47.70;26.95;;;;;;;;;;4991196;28;20156;-86
2021/12/24 02:41:09;;;;;;;48.97;28.20;;;;;;;;;;5001575;28;20058;-86
2021/12/24 02:43:35;;;;;;;45.85;27.08;;;;;;;;;;5001601;28;20038;-84
2021/12/24 02:46:11;;;;;;;51.17;29.17;;;;;;;;;;5000778;28;20030;-87
2021/12/24 02:54:04;;;;;;;50.22;28.70;;;;;;;;;;4996319;28;20077;-86
2021/12/24 02:56:32;;;;;;;44.88;26.08;;;;;;;;;;4996644;28;20022;-86
2021/12/24 02:59:00;;;;;;;45.55;26.40;;;;;;;;;;5001299;28;20371;-86
2021/12/24 03:01:29;;;;;;;43.80;26.20;;;;;;;;;;4998836;28;20105;-87
2021/12/24 03:03:56;;;;;;;42.40;24.95;;;;;;;;;;4981985;28;20031;-87
2021/12/24 03:06:24;;;;;;;40.03;23.77;;;;;;;;;;4981612;28;20066;-87
2021/12/24 03:08:50;;;;;;;32.97;20.98;;;;;;;;;;4980724;28;20042;-87
2021/12/24 03:11:16;;;;;;;34.53;20.45;;;;;;;;;;4997303;28;20038;-87
2021/12/24 03:13:43;;;;;;;36.33;23.08;;;;;;;;;;4986943;28;20068;-86
2021/12/24 03:16:10;;;;;;;33.78;19.83;;;;;;;;;;5000134;28;20018;-86
2021/12/24 03:18:38;;;;;;;32.53;19.83;;;;;;;;;;4992761;28;20031;-86
2021/12/24 03:21:37;;;;;;;33.03;19.85;;;;;;;;;;4981128;28;20023;-85
2021/12/24 03:26:31;;;;;;;35.10;20.90;;;;;;;;;;4984160;28;20406;-85
2021/12/24 03:28:57;;;;;;;34.95;21.13;;;;;;;;;;4981321;28;20397;-84
2021/12/24 03:31:23;;;;;;;35.25;20.52;;;;;;;;;;4980252;28;20038;-86
2021/12/24 03:33:53;;;;;;;33.85;20.65;;;;;;;;;;4986393;28;20032;-85
2021/12/24 03:36:19;;;;;;;33.22;20.67;;;;;;;;;;4993766;28;20391;-86
2021/12/24 03:38:45;;;;;;;35.97;21.45;;;;;;;;;;4980949;28;20023;-87
2021/12/24 03:41:11;;;;;;;35.45;20.27;;;;;;;;;;4980788;28;20373;-87
2021/12/24 03:43:37;;;;;;;33.00;19.25;;;;;;;;;;4983059;28;20361;-87
2021/12/24 03:46:11;;;;;;;28.63;18.27;;;;;;;;;;4996934;28;20104;-86
2021/12/24 03:56:30;;;;;;;28.92;17.77;;;;;;;;;;4981005;28;20041;-85
2021/12/24 03:58:56;;;;;;;31.98;19.25;;;;;;;;;;4980484;28;20395;-86
2021/12/24 04:01:22;;;;;;;32.47;19.02;;;;;;;;;;4985496;28;20025;-85
2021/12/24 04:03:48;;;;;;;31.10;18.80;;;;;;;;;;4986644;28;20114;-85
2021/12/24 04:06:14;;;;;;;30.38;18.55;;;;;;;;;;4980862;28;20103;-86
2021/12/24 04:08:40;;;;;;;36.70;19.50;;;;;;;;;;4979660;28;20062;-86
2021/12/24 04:11:06;;;;;;;30.38;18.70;;;;;;;;;;4991663;28;20026;-85
2021/12/24 04:13:33;;;;;;;35.78;19.75;;;;;;;;;;4999791;28;20061;-85
2021/12/24 04:15:59;;;;;;;31.35;19.20;;;;;;;;;;4984323;28;20027;-85
2021/12/24 04:26:23;;;;;;;38.38;24.35;;;;;;;;;;4999541;28;20077;-88
2021/12/24 04:28:50;;;;;;;38.92;23.50;;;;;;;;;;4998098;28;20026;-85
2021/12/24 04:31:18;;;;;;;35.92;22.27;;;;;;;;;;4997837;28;20026;-84
2021/12/24 04:33:47;;;;;;;40.60;24.38;;;;;;;;;;4989006;28;20298;-85
2021/12/24 05:03:14;;;;;;;32.03;20.60;;;;;;;;;;4999345;28;20029;-86
2021/12/24 05:05:48;;;;;;;34.85;21.90;;;;;;;;;;4999320;28;20026;-85
2021/12/24 05:08:27;;;;;;;43.22;23.40;;;;;;;;;;4998925;28;20046;-86
2021/12/24 05:10:53;;;;;;;41.40;23.48;;;;;;;;;;4984139;28;20027;-86
2021/12/24 05:13:21;;;;;;;43.75;24.58;;;;;;;;;;4986591;28;20069;-85
2021/12/24 05:15:52;;;;;;;42.88;24.10;;;;;;;;;;4978262;28;20038;-85
2021/12/24 05:19:01;;;;;;;41.53;22.25;;;;;;;;;;4979085;28;20455;-85
2021/12/24 05:21:35;;;;;;;35.22;20.20;;;;;;;;;;4998570;28;20029;-85
2021/12/24 05:24:06;;;;;;;35.13;21.17;;;;;;;;;;4998742;28;20030;-85
2021/12/24 05:26:33;;;;;;;32.88;20.20;;;;;;;;;;4984370;28;20023;-85
2021/12/24 05:28:59;;;;;;;36.55;19.92;;;;;;;;;;4978904;28;20042;-85
2021/12/24 05:31:25;;;;;;;34.35;20.35;;;;;;;;;;4979152;28;20023;-87
2021/12/24 05:33:51;;;;;;;32.42;18.58;;;;;;;;;;4994474;28;20030;-86
2021/12/24 05:36:55;;;;;;;38.55;19.73;;;;;;;;;;4998584;28;20468;-87
2021/12/24 05:39:22;;;;;;;32.45;18.23;;;;;;;;;;4996955;28;20097;-85
2021/12/24 05:41:49;;;;;;;33.05;18.77;;;;;;;;;;4984055;28;20061;-87
2021/12/24 05:44:16;;;;;;;35.22;19.02;;;;;;;;;;4998424;28;20057;-86
2021/12/24 05:46:45;;;;;;;38.15;20.17;;;;;;;;;;4998317;28;20416;-85
2021/12/24 05:49:11;;;;;;;36.35;19.23;;;;;;;;;;4978834;28;20034;-86
2021/12/24 05:51:55;;;;;;;35.47;19.73;;;;;;;;;;4997985;28;20038;-86
2021/12/24 05:54:21;;;;;;;38.08;18.80;;;;;;;;;;4996936;28;20028;-87
2021/12/24 05:56:47;;;;;;;33.30;18.38;;;;;;;;;;4997570;28;20081;-85
2021/12/24 05:59:13;;;;;;;36.88;19.42;;;;;;;;;;4981495;28;20113;-84
2021/12/24 06:01:40;;;;;;;34.38;20.00;;;;;;;;;;4990793;28;20026;-85
2021/12/24 06:04:06;;;;;;;29.73;17.63;;;;;;;;;;4997048;28;20360;-85
2021/12/24 06:06:32;;;;;;;31.02;16.90;;;;;;;;;;4998073;28;20026;-86
2021/12/24 06:08:58;;;;;;;26.33;15.90;;;;;;;;;;4998013;28;20072;-85
2021/12/24 06:11:25;;;;;;;25.92;15.77;;;;;;;;;;4995759;28;20113;-85
2021/12/24 06:13:54;;;;;;;29.33;16.10;;;;;;;;;;4981677;28;20042;-86
2021/12/24 06:16:21;;;;;;;26.85;15.77;;;;;;;;;;4978610;28;20031;-85
2021/12/24 06:18:47;;;;;;;26.88;15.68;;;;;;;;;;4996115;28;20058;-86
2021/12/24 06:21:13;;;;;;;29.13;16.23;;;;;;;;;;4979646;28;20118;-85
2021/12/24 06:23:40;;;;;;;29.25;15.95;;;;;;;;;;4982246;28;20470;-85
2021/12/24 06:26:07;;;;;;;28.25;17.13;;;;;;;;;;4978769;28;20041;-85
2021/12/24 06:28:34;;;;;;;27.58;16.52;;;;;;;;;;4980172;28;20031;-84
2021/12/24 06:31:01;;;;;;;28.20;16.38;;;;;;;;;;4977391;28;20421;-84
2021/12/24 06:33:28;;;;;;;28.80;17.17;;;;;;;;;;4991472;28;20416;-84
2021/12/24 06:35:56;;;;;;;24.63;16.15;;;;;;;;;;4997103;28;20117;-84
2021/12/24 06:38:22;;;;;;;36.42;19.75;;;;;;;;;;4997671;28;20037;-84
2021/12/24 06:40:48;;;;;;;34.50;20.83;;;;;;;;;;4984093;28;20039;-84
2021/12/24 06:43:14;;;;;;;39.72;21.67;;;;;;;;;;4977955;28;20077;-86
2021/12/24 06:45:40;;;;;;;46.25;23.35;;;;;;;;;;4977046;28;20033;-86
2021/12/24 06:48:06;;;;;;;48.13;21.98;;;;;;;;;;4992939;28;20065;-85
2021/12/24 06:50:33;;;;;;;44.95;22.35;;;;;;;;;;4997727;28;20031;-87
2021/12/24 06:52:59;;;;;;;46.08;25.60;;;;;;;;;;4994024;28;20030;-85
2021/12/24 06:55:25;;;;;;;44.03;24.33;;;;;;;;;;4999830;28;20030;-86
2021/12/24 06:57:51;;;;;;;38.22;20.67;;;;;;;;;;5001639;28;20048;-86
2021/12/24 07:00:19;;;;;;;39.00;20.65;;;;;;;;;;4981378;28;20081;-86
2021/12/24 07:02:45;;;;;;;37.53;21.20;;;;;;;;;;4998352;28;20114;-86
2021/12/24 07:05:11;;;;;;;39.47;22.33;;;;;;;;;;5001305;28;20022;-86
2021/12/24 07:07:38;;;;;;;47.38;24.65;;;;;;;;;;5001434;28;20026;-85
2021/12/24 07:10:05;;;;;;;58.72;27.27;;;;;;;;;;5000408;28;20030;-85
2021/12/24 07:12:31;;;;;;;53.28;28.75;;;;;;;;;;4994006;28;20077;-84
2021/12/24 07:14:57;;;;;;;57.67;27.63;;;;;;;;;;4981343;28;20357;-85
2021/12/24 07:17:23;;;;;;;51.47;26.65;;;;;;;;;;4981304;28;20031;-86
2021/12/24 07:19:49;;;;;;;59.85;32.47;;;;;;;;;;4994362;28;20102;-85
2021/12/24 07:22:17;;;;;;;94.68;44.05;;;;;;;;;;5000662;28;20034;-86
2021/12/24 07:24:43;;;;;;;99.95;43.15;;;;;;;;;;4992483;28;20065;-86
2021/12/24 07:27:09;;;;;;;88.80;39.55;;;;;;;;;;4981583;28;20034;-86
2021/12/24 07:29:36;;;;;;;86.22;37.83;;;;;;;;;;4984987;28;20027;-84
2021/12/24 07:32:03;;;;;;;58.58;29.38;;;;;;;;;;4981234;28;20026;-86
2021/12/24 07:34:29;;;;;;;51.92;25.85;;;;;;;;;;4980596;28;20062;-86
2021/12/24 07:36:55;;;;;;;38.13;20.27;;;;;;;;;;4999246;28;20034;-85
2021/12/24 07:39:21;;;;;;;65.32;30.27;;;;;;;;;;5000832;28;20022;-86
2021/12/24 07:41:48;;;;;;;38.55;19.40;;;;;;;;;;4993700;28;20046;-83
2021/12/24 07:44:16;;;;;;;36.58;18.08;;;;;;;;;;4980966;28;20026;-83
2021/12/24 07:46:55;;;;;;;53.38;23.27;;;;;;;;;;4980553;28;20042;-82
2021/12/24 07:52:08;;;;;;;71.35;32.25;;;;;;;;;;4996248;28;20026;-85
2021/12/24 07:54:46;;;;;;;65.22;27.80;;;;;;;;;;4993554;28;20491;-84
2021/12/24 07:57:13;;;;;;;52.55;25.00;;;;;;;;;;4987398;28;20027;-84
2021/12/24 07:59:40;;;;;;;43.90;22.45;;;;;;;;;;4986604;28;20029;-83
2021/12/24 08:02:11;;;;;;;41.92;19.80;;;;;;;;;;4981322;28;20035;-85
2021/12/24 08:04:38;;;;;;;37.30;17.55;;;;;;;;;;4993160;28;20022;-84
2021/12/24 08:10:07;;;;;;;34.58;14.35;;;;;;;;;;4980721;28;20077;-83
2021/12/24 08:12:33;;;;;;;31.67;14.43;;;;;;;;;;4979950;28;20026;-84
2021/12/24 08:14:59;;;;;;;35.63;18.58;;;;;;;;;;4980340;28;20131;-84
2021/12/24 08:17:25;;;;;;;36.22;18.48;;;;;;;;;;4978815;28;20062;-84
2021/12/24 08:19:51;;;;;;;33.63;16.92;;;;;;;;;;4979980;28;20030;-84
2021/12/24 08:22:17;;;;;;;38.92;18.25;;;;;;;;;;4978855;28;20026;-84
2021/12/24 08:24:43;;;;;;;27.35;14.73;;;;;;;;;;4980057;28;20027;-84
2021/12/24 08:27:10;;;;;;;19.88;12.35;;;;;;;;;;4979106;28;20421;-85
2021/12/24 08:29:36;;;;;;;22.65;12.95;;;;;;;;;;4978937;28;20034;-84
2021/12/24 08:32:04;;;;;;;25.65;14.57;;;;;;;;;;4978716;28;20081;-85
2021/12/24 08:34:30;;;;;;;26.48;15.38;;;;;;;;;;4980240;28;20042;-84
2021/12/24 08:36:56;;;;;;;22.40;12.75;;;;;;;;;;4979689;28;20035;-84
2021/12/24 08:39:22;;;;;;;25.88;14.50;;;;;;;;;;4979749;28;20026;-83
2021/12/24 08:41:52;;;;;;;25.20;13.50;;;;;;;;;;4979647;28;20054;-83
2021/12/24 08:44:18;;;;;;;21.92;11.50;;;;;;;;;;4979813;28;20027;-84
2021/12/24 08:46:44;;;;;;;17.25;9.80;;;;;;;;;;4979685;28;20027;-84
2021/12/24 08:49:10;;;;;;;18.27;11.00;;;;;;;;;;4978599;28;20409;-83
2021/12/24 08:51:36;;;;;;;16.70;10.95;;;;;;;;;;4979900;28;20106;-84
2021/12/24 08:54:03;;;;;;;16.75;10.90;;;;;;;;;;4977792;28;20035;-84
2021/12/24 08:56:29;;;;;;;17.50;11.50;;;;;;;;;;4979491;28;20106;-84
2021/12/24 08:58:56;;;;;;;20.13;11.98;;;;;;;;;;4979362;28;20034;-84
2021/12/24 09:01:22;;;;;;;16.33;9.52;;;;;;;;;;4979454;28;20033;-84
2021/12/24 09:03:48;;;;;;;24.08;12.50;;;;;;;;;;4979305;28;20074;-84
2021/12/24 09:06:14;;;;;;;15.98;10.30;;;;;;;;;;4977900;28;20043;-84
2021/12/24 09:08:44;;;;;;;14.93;8.93;;;;;;;;;;4979320;28;20035;-84
2021/12/24 09:11:11;;;;;;;14.57;8.63;;;;;;;;;;4979331;28;20434;-84
2021/12/24 09:13:37;;;;;;;16.60;9.65;;;;;;;;;;4979184;28;20027;-84
2021/12/24 09:16:03;;;;;;;24.33;11.98;;;;;;;;;;4979380;28;20105;-84
2021/12/24 09:18:29;;;;;;;40.13;18.02;;;;;;;;;;4976965;28;20035;-83
2021/12/24 09:21:00;;;;;;;64.53;23.38;;;;;;;;;;4978932;28;20361;-83
2021/12/24 09:23:26;;;;;;;72.80;28.00;;;;;;;;;;4978975;28;20456;-83
2021/12/24 09:25:52;;;;;;;42.03;19.73;;;;;;;;;;4978998;28;20366;-83
2021/12/24 09:28:18;;;;;;;25.35;13.38;;;;;;;;;;4977442;28;20069;-83
2021/12/24 09:30:44;;;;;;;19.25;11.65;;;;;;;;;;4979045;28;20026;-84
2021/12/24 09:33:10;;;;;;;20.25;12.10;;;;;;;;;;4978857;28;20037;-83
2021/12/24 09:35:36;;;;;;;19.90;10.18;;;;;;;;;;4978929;28;20027;-83
2021/12/24 09:38:03;;;;;;;22.60;10.35;;;;;;;;;;4977453;28;20035;-83
2021/12/24 09:40:29;;;;;;;18.13;9.20;;;;;;;;;;4978524;28;20046;-83
2021/12/24 09:42:55;;;;;;;15.70;8.80;;;;;;;;;;4978728;28;20102;-84
2021/12/24 09:45:21;;;;;;;15.35;9.10;;;;;;;;;;4977549;28;20110;-83
2021/12/24 09:47:47;;;;;;;15.45;9.23;;;;;;;;;;4978571;28;20034;-83
2021/12/24 09:50:15;;;;;;;18.52;11.25;;;;;;;;;;4978785;28;20108;-83
2021/12/24 09:52:44;;;;;;;20.85;12.15;;;;;;;;;;4978512;28;20337;-83
2021/12/24 09:55:11;;;;;;;29.23;12.73;;;;;;;;;;4978755;28;20026;-83
2021/12/24 09:57:37;;;;;;;19.98;11.23;;;;;;;;;;4978239;28;20019;-83
2021/12/24 10:00:07;;;;;;;22.70;12.10;;;;;;;;;;4978492;28;20050;-83
2021/12/24 10:02:43;;;;;;;26.42;13.88;;;;;;;;;;4977310;28;20022;-83
2021/12/24 10:05:25;;;;;;;21.75;12.50;;;;;;;;;;4978371;28;20436;-83
2021/12/24 10:07:51;;;;;;;26.83;14.50;;;;;;;;;;4978329;28;20031;-83
2021/12/24 10:10:25;;;;;;;39.95;18.40;;;;;;;;;;4978442;28;20054;-83
2021/12/24 10:12:52;;;;;;;35.05;15.90;;;;;;;;;;4978506;28;20034;-83
2021/12/24 10:15:19;;;;;;;30.77;15.18;;;;;;;;;;4976800;28;20121;-83
2021/12/24 10:17:45;;;;;;;20.85;11.20;;;;;;;;;;4978212;28;20042;-82
2021/12/24 10:20:15;;;;;;;16.70;10.77;;;;;;;;;;4978215;28;20153;-83
2021/12/24 10:22:49;;;;;;;17.80;11.00;;;;;;;;;;4978065;28;20027;-83
2021/12/24 10:25:16;;;;;;;20.67;12.55;;;;;;;;;;4977013;28;20066;-83
2021/12/24 10:27:43;;;;;;;20.63;12.23;;;;;;;;;;4978196;28;20387;-83
2021/12/24 10:30:15;;;;;;;23.63;12.80;;;;;;;;;;4979513;28;20113;-83
2021/12/24 10:32:41;;;;;;;29.35;15.55;;;;;;;;;;4982095;28;20030;-83
2021/12/24 10:35:26;;;;;;;26.88;15.43;;;;;;;;;;4982012;28;20031;-83
2021/12/24 10:38:12;;;;;;;33.25;18.17;;;;;;;;;;4980307;28;20057;-83
2021/12/24 10:40:48;;;;;;;43.88;23.05;;;;;;;;;;4981753;28;20039;-82
2021/12/24 10:43:23;;;;;;;25.95;13.95;;;;;;;;;;4981866;28;20053;-83
2021/12/24 10:46:07;;;;;;;20.23;10.75;;;;;;;;;;4981863;28;20047;-83
2021/12/24 10:48:33;;;;;;;16.42;9.50;;;;;;;;;;4982001;28;20033;-83
2021/12/24 10:54:18;;;;;;;15.20;9.50;;;;;;;;;;4952028;29;20042;-82
2021/12/24 10:56:44;;;;;;;19.42;11.23;;;;;;;;;;4936024;29;20043;-81
2021/12/24 10:59:12;;;;;;;17.17;9.88;;;;;;;;;;4941122;29;20024;-81
2021/12/24 11:01:38;;;;;;;17.38;10.27;;;;;;;;;;4941012;29;20028;-92
2021/12/24 11:04:04;;;;;;;16.70;9.85;;;;;;;;;;4941024;29;20454;-82
2021/12/24 11:06:31;;;;;;;27.33;11.88;;;;;;;;;;4940962;29;20042;-82
2021/12/24 11:08:58;;;;;;;11.10;7.63;;;;;;;;;;4925123;29;20043;-80
2021/12/24 11:11:25;;;;;;;18.23;10.63;;;;;;;;;;4940731;29;20071;-81
2021/12/24 11:13:52;;;;;;;20.98;11.73;;;;;;;;;;4940898;29;20031;-81
2021/12/24 11:16:20;;;;;;;16.17;9.38;;;;;;;;;;4940851;29;20042;-82
2021/12/24 11:18:53;;;;;;;19.92;9.52;;;;;;;;;;4940480;29;20449;-82
2021/12/24 11:21:21;;;;;;;17.15;9.40;;;;;;;;;;4940721;29;20028;-82
2021/12/24 11:23:47;;;;;;;16.02;8.25;;;;;;;;;;4940669;29;20038;-81
2021/12/24 11:26:18;;;;;;;13.38;7.00;;;;;;;;;;4940675;29;20027;-82
2021/12/24 11:28:45;;;;;;;13.13;6.85;;;;;;;;;;4942499;28;20039;-81
2021/12/24 11:31:13;;;;;;;49.55;32.97;;;;;;;;;;4981073;28;20027;-82
2021/12/24 11:33:40;;;;;;;13.07;7.55;;;;;;;;;;4980844;28;20027;-82
2021/12/24 11:36:08;;;;;;;39.25;26.17;;;;;;;;;;4979650;28;20089;-82
2021/12/24 11:38:36;;;;;;;18.17;8.50;;;;;;;;;;4980601;28;20027;-81
2021/12/24 11:41:03;;;;;;;18.80;9.13;;;;;;;;;;4980520;28;20047;-81
2021/12/24 11:43:31;;;;;;;22.08;12.18;;;;;;;;;;4980636;28;20050;-81
2021/12/24 11:45:59;;;;;;;45.80;23.98;;;;;;;;;;4980448;28;20027;-81
2021/12/24 11:48:27;;;;;;;123.13;63.83;;;;;;;;;;4980656;28;20110;-81
2021/12/24 11:50:53;;;;;;;59.70;31.33;;;;;;;;;;4980588;28;20033;-81
2021/12/24 11:53:19;;;;;;;58.50;30.95;;;;;;;;;;4980257;28;20039;-81
2021/12/24 11:55:50;;;;;;;66.72;34.55;;;;;;;;;;4980580;28;20022;-79
2021/12/24 11:58:18;;;;;;;28.15;16.17;;;;;;;;;;4980207;28;20046;-79
2021/12/24 12:00:45;;;;;;;26.25;15.60;;;;;;;;;;4980661;28;20358;-79
2021/12/24 12:03:29;;;;;;;23.67;13.32;;;;;;;;;;4980237;28;20023;-79
2021/12/24 12:05:55;;;;;;;13.23;8.07;;;;;;;;;;4980123;28;20065;-79
2021/12/24 12:08:27;;;;;;;13.10;8.48;;;;;;;;;;4979989;28;20027;-79
2021/12/24 12:10:59;;;;;;;8.48;5.38;;;;;;;;;;4980207;28;20035;-80
2021/12/24 12:13:41;;;;;;;10.90;6.10;;;;;;;;;;4980092;28;20026;-80
2021/12/24 12:16:09;;;;;;;8.37;5.20;;;;;;;;;;4979903;28;20122;-79
2021/12/24 12:18:48;;;;;;;7.90;4.57;;;;;;;;;;4979803;28;20031;-79
2021/12/24 12:21:19;;;;;;;21.50;8.52;;;;;;;;;;4978900;28;20026;-79
2021/12/24 12:26:34;;;;;;;8.18;4.20;;;;;;;;;;4979869;28;20034;-79
2021/12/24 12:29:17;;;;;;;10.05;4.97;;;;;;;;;;4978768;28;20023;-79
2021/12/24 12:31:43;;;;;;;18.45;7.53;;;;;;;;;;4978178;28;20039;-79
2021/12/24 12:34:28;;;;;;;58.88;24.05;;;;;;;;;;4979721;28;20038;-79
2021/12/24 12:36:54;;;;;;;34.70;14.60;;;;;;;;;;4979489;28;20046;-79
2021/12/24 12:39:26;;;;;;;12.73;4.47;;;;;;;;;;4979418;28;20023;-80
2021/12/24 12:41:52;;;;;;;8.18;4.40;;;;;;;;;;4979296;28;20070;-80
2021/12/24 12:44:19;;;;;;;20.63;9.32;;;;;;;;;;4979426;28;20413;-80
2021/12/24 12:46:47;;;;;;;24.95;11.85;;;;;;;;;;4979238;28;20027;-83
2021/12/24 12:49:16;;;;;;;11.82;5.07;;;;;;;;;;4979662;28;20023;-81
2021/12/24 12:51:58;;;;;;;10.90;5.78;;;;;;;;;;4979228;28;20023;-79
2021/12/24 12:54:24;;;;;;;;;;;;;;;;;;4979414;28;20030;-79
2021/12/24 12:57:09;;;;;;;10.38;5.72;;;;;;;;;;4979168;28;19952;-79
2021/12/24 12:59:35;;;;;;;17.30;7.85;;;;;;;;;;4977687;28;20118;-79
2021/12/24 13:02:02;;;;;;;17.33;7.85;;;;;;;;;;4977987;28;20341;-79
2021/12/24 13:04:28;;;;;;;289.83;95.57;;;;;;;;;;4979084;28;20097;-79
2021/12/24 13:06:55;;;;;;;168.80;61.28;;;;;;;;;;4978918;28;20101;-79
2021/12/24 13:09:28;;;;;;;17.20;6.90;;;;;;;;;;4978875;28;20022;-79
2021/12/24 13:11:55;;;;;;;20.45;9.50;;;;;;;;;;4978859;28;20037;-79
2021/12/24 13:14:23;;;;;;;117.50;43.45;;;;;;;;;;4978797;28;20041;-79
2021/12/24 13:16:54;;;;;;;11.07;6.63;;;;;;;;;;4976970;28;20117;-79
2021/12/24 13:19:32;;;;;;;25.90;11.35;;;;;;;;;;4977331;28;20125;-80
2021/12/24 13:24:59;;;;;;;123.30;46.65;;;;;;;;;;4978709;28;20123;-80
2021/12/24 13:27:30;;;;;;;24.13;11.43;;;;;;;;;;4978784;28;20053;-79
2021/12/24 13:30:06;;;;;;;16.05;8.20;;;;;;;;;;4978792;28;20023;-79
2021/12/24 13:32:32;;;;;;;11.65;6.03;;;;;;;;;;4978577;28;20050;-79
2021/12/24 13:34:58;;;;;;;10.48;6.40;;;;;;;;;;4978343;28;20053;-80
2021/12/24 13:37:30;;;;;;;47.22;17.85;;;;;;;;;;4978403;28;20058;-79
2021/12/24 13:39:56;;;;;;;180.98;66.03;;;;;;;;;;4976908;28;20043;-80
2021/12/24 13:42:22;;;;;;;19.95;9.43;;;;;;;;;;4978267;28;20342;-79
2021/12/24 13:44:49;;;;;;;34.88;15.20;;;;;;;;;;4978259;28;20310;-79
2021/12/24 13:47:28;;;;;;;55.03;21.75;;;;;;;;;;4978329;28;20115;-80
2021/12/24 13:55:25;;;;;;;13.70;8.30;;;;;;;;;;4978537;28;20162;-81
2021/12/24 13:58:01;;;;;;;17.77;8.82;;;;;;;;;;4978165;28;20406;-80
2021/12/24 14:00:29;;;;;;;10.27;5.97;;;;;;;;;;4978333;28;20039;-80
2021/12/24 14:02:59;;;;;;;12.07;7.60;;;;;;;;;;4976842;28;20406;-79
2021/12/24 14:05:26;;;;;;;21.05;9.25;;;;;;;;;;4975789;28;20035;-80
2021/12/24 14:08:12;;;;;;;32.80;15.77;;;;;;;;;;4978240;28;20375;-80
2021/12/24 14:10:40;;;;;;;19.52;8.77;;;;;;;;;;4978071;28;20034;-79
2021/12/24 14:13:22;;;;;;;24.00;9.25;;;;;;;;;;4978161;28;20026;-79
2021/12/24 14:16:08;;;;;;;;;;;;;;;;;;4978394;28;20094;-80
2021/12/24 14:23:46;;;;;;;11.20;6.63;;;;;;;;;;4978086;28;20023;-79
2021/12/24 14:26:13;;;;;;;13.15;7.63;;;;;;;;;;4976944;28;20030;-80
2021/12/24 14:28:50;;;;;;;15.63;8.55;;;;;;;;;;4978021;28;20070;-80
2021/12/24 14:31:16;;;;;;;16.80;9.65;;;;;;;;;;4977892;28;20433;-80
2021/12/24 14:33:47;;;;;;;22.55;14.13;;;;;;;;;;4978033;28;20033;-80
2021/12/24 14:36:17;;;;;;;96.75;53.55;;;;;;;;;;4977962;28;20037;-80
2021/12/24 14:38:43;;;;;;;27.42;14.65;;;;;;;;;;4976175;28;20035;-80
2021/12/24 14:41:16;;;;;;;35.30;17.98;;;;;;;;;;4976157;28;20042;-80
2021/12/24 14:43:42;;;;;;;40.95;21.50;;;;;;;;;;4977990;28;20047;-80
2021/12/24 14:46:08;;;;;;;30.42;17.27;;;;;;;;;;4976155;28;20030;-80
2021/12/24 14:48:36;;;;;;;36.28;19.25;;;;;;;;;;4977693;28;20441;-80
2021/12/24 14:51:04;;;;;;;25.55;14.13;;;;;;;;;;4977598;28;20049;-80
2021/12/24 14:53:34;;;;;;;30.92;16.20;;;;;;;;;;4977909;28;20031;-81
2021/12/24 14:56:02;;;;;;;40.78;23.17;;;;;;;;;;4977923;28;20050;-81
2021/12/24 14:58:42;;;;;;;32.38;18.00;;;;;;;;;;4977880;28;20023;-81
2021/12/24 15:01:26;;;;;;;35.38;19.77;;;;;;;;;;4977796;28;20032;-81
2021/12/24 15:03:53;;;;;;;36.22;20.23;;;;;;;;;;4977620;28;20027;-81
2021/12/24 15:06:24;;;;;;;47.35;24.42;;;;;;;;;;4977520;28;20030;-81
2021/12/24 15:08:50;;;;;;;72.80;40.38;;;;;;;;;;4977925;28;20098;-81
2021/12/24 15:11:21;;;;;;;94.60;51.47;;;;;;;;;;4977572;28;20031;-81
2021/12/24 15:13:50;;;;;;;81.63;44.50;;;;;;;;;;4976496;28;20425;-81
2021/12/24 15:16:17;;;;;;;70.22;31.90;;;;;;;;;;4979060;28;20038;-81
2021/12/24 15:18:48;;;;;;;75.93;35.55;;;;;;;;;;4980771;28;20031;-81
2021/12/24 15:21:15;;;;;;;50.03;24.13;;;;;;;;;;4980984;28;20031;-80
2021/12/24 15:23:41;;;;;;;47.92;22.20;;;;;;;;;;4981189;28;20018;-81
2021/12/24 15:26:07;;;;;;;45.38;22.27;;;;;;;;;;4981263;28;20030;-81
2021/12/24 15:28:38;;;;;;;56.70;37.08;;;;;;;;;;4981089;28;20037;-81
2021/12/24 15:31:04;;;;;;;67.13;36.03;;;;;;;;;;4980834;28;20078;-81
2021/12/24 15:33:30;;;;;;;97.30;43.03;;;;;;;;;;4980613;28;20114;-81
2021/12/24 15:35:56;;;;;;;28.83;15.32;;;;;;;;;;4980762;28;20034;-81
2021/12/24 15:38:22;;;;;;;63.80;26.38;;;;;;;;;;4980703;28;20096;-81
2021/12/24 15:40:49;;;;;;;27.85;13.77;;;;;;;;;;4980662;28;20038;-81
2021/12/24 15:43:16;;;;;;;20.65;11.82;;;;;;;;;;4979746;28;20033;-84
2021/12/24 15:45:43;;;;;;;13.93;7.65;;;;;;;;;;4980792;28;20034;-82
2021/12/24 15:48:09;;;;;;;23.98;11.27;;;;;;;;;;4980643;28;20031;-79
2021/12/24 15:50:35;;;;;;;30.10;14.02;;;;;;;;;;4978475;28;20066;-80
2021/12/24 15:53:01;;;;;;;33.35;17.70;;;;;;;;;;4980435;28;20405;-80
2021/12/24 15:55:28;;;;;;;33.03;17.65;;;;;;;;;;4984572;28;20034;-79
2021/12/24 15:57:54;;;;;;;104.30;39.50;;;;;;;;;;4999579;28;20097;-79
2021/12/24 16:00:20;;;;;;;39.80;19.95;;;;;;;;;;4990961;28;20394;-79
2021/12/24 16:02:46;;;;;;;23.17;14.90;;;;;;;;;;4983225;28;20019;-79
2021/12/24 16:05:14;;;;;;;31.02;14.77;;;;;;;;;;4980248;28;20111;-80
2021/12/24 16:07:41;;;;;;;15.55;9.52;;;;;;;;;;4980352;28;20310;-82
2021/12/24 16:10:07;;;;;;;74.82;33.78;;;;;;;;;;4977907;28;20073;-80
2021/12/24 16:12:33;;;;;;;22.05;11.18;;;;;;;;;;4979806;28;20094;-80
2021/12/24 16:15:00;;;;;;;18.50;9.73;;;;;;;;;;4979690;28;20031;-80
2021/12/24 16:17:26;;;;;;;19.83;10.27;;;;;;;;;;4979768;28;20447;-80
2021/12/24 16:19:52;;;;;;;21.60;11.40;;;;;;;;;;4978197;28;20035;-80
2021/12/24 16:22:20;;;;;;;23.95;12.07;;;;;;;;;;4979722;28;20030;-80
2021/12/24 16:24:46;;;;;;;27.05;13.00;;;;;;;;;;4979799;28;20019;-80
2021/12/24 16:27:13;;;;;;;32.42;16.05;;;;;;;;;;4978894;28;20022;-80
2021/12/24 16:29:58;;;;;;;83.13;34.83;;;;;;;;;;4979631;28;20106;-80
2021/12/24 16:32:26;;;;;;;36.85;19.73;;;;;;;;;;4979429;28;20050;-80